Details From LPPR - Porto
To LPLA - LAJES
Flight Number -
Tags generated
Created
Modified
Stats Distance 872 nm / 1,614 km
Max Altitude 34,300 ft / 10,455 m
Waypoints 9
Social Downloads 1
Likes 0
Share VATSIM

Download

Looking for another format? Having issues loading an existing format? Contact us
Advertisement - Login to hide

Notes

Basic altitude profile: - Ascent Rate: 2500ft/min - Ascent Speed: 250kts - Cruise Altitude: 35000ft - Cruise Speed: 420kts - Descent Rate: 1500ft/min - Descent Speed: 250kts Options: - Use NATs: yes - Use PACOTS: yes - Use low airways: yes - Use high airways: yes

Route

LPPR DIRMA UZ25 ERPES 15SNT 4000N02000W BAVAS H121 REGLA LPLA

ID Type Via Altitude Latitude Longitude Leg Dist Tot Dist Heading (true) Name
O LPPR APT - 0 ft / 0 m 41.24793˚ -8.68122˚ - 0 nm - Porto
DIRMA FIX - 14,700 ft / 4,481 m 40.85167˚ -9.50083˚ 44 nm 44 nm 238° / 237° -
SOPOP FIX UZ25 (AWY-HI) 34,000 ft / 10,363 m 40.44000˚ -12.38667˚ 133 nm 177 nm 260° / 258° -
ERPES FIX UZ25 (AWY-HI) 34,000 ft / 10,363 m 40.00000˚ -15.00000˚ 122 nm 300 nm 258° / 257° -
15SNT FIX - 34,000 ft / 10,363 m 40.00000˚ -16.00000˚ 46 nm 346 nm 270° / 270° -
4000N02000W LATLON - 34,000 ft / 10,363 m 40.00000˚ -20.00000˚ 184 nm 530 nm 271° / 269° -
BAVAS FIX - 34,300 ft / 10,455 m 39.00000˚ -23.67833˚ 180 nm 711 nm 252° / 249° -
REGLA FIX H121 (AWY-LO) 9,600 ft / 2,926 m 38.85528˚ -26.13889˚ 115 nm 826 nm 266° / 265° -
O LPLA APT - 0 ft / 0 m 38.76441˚ -27.09348˚ 45 nm 871 nm 263° / 263° LAJES

Altitude Profile

Advertisement - Login to hide

Weather


0- 5 10 15 20 25 30 35+ Temperature / ° C

Clouds and Precipitation
Forecast for 2017-12-16 00:00 UTC. Updated 39 minutes ago

Ground ~20,000 ft ~40,000 ft Winds

LPPR

Details ICAO LPPR (OPO)
Name Porto
Region Portugal
Timezone Europe/Lisbon (UTC+0.0)
Stats Elevation 228 ft / 69 m (AMSL)
Location 41.247932° -8.681221°
Runways 1
Magnetic Variation 2.339° W

METAR

LPPR 152130Z 01006KT CAVOK 07/04 Q1021

Decode

TAF

TAF LPPR 151710Z 1518/1618 35008KT 9999 FEW030 BECMG 1518/1521 VRB03KT CAVOK BECMG 1522/1524 05005KT BECMG 1610/1613 36010KT

Decode

Departure Runways

ID Width Length Bearing (true) Bearing (mag) Surface Threshold Offset Overrun Length
17 148 ft / 45 m 11,451 ft / 3,490 m 168.88° 171.22° Asphalt 984 ft / 300 m 220 ft / 67 m
35 148 ft / 45 m 11,451 ft / 3,490 m 348.89° 351.23° Asphalt 492 ft / 150 m 370 ft / 113 m

LPLA

Details ICAO LPLA (TER)
Name LAJES
Region Portugal
Timezone Atlantic/Azores (UTC-1.0)
Stats Elevation 180 ft / 55 m (AMSL)
Location 38.764410° -27.093482°
Runways 1
Magnetic Variation 8.934° W

METAR

LPLA 152100Z /////KT 9000 -SHRA FEW018 SCT025 18/16 Q1030

Decode

TAF

TAF LPLA 151700Z 1518/1618 30008KT 9999 FEW020 SCT030= TAF LPPD 151710Z 1518/1618 32008KT 9999 FEW018 BKN030 PROB30 TEMPO 1518/1521 5000 DZ SCT005 BKN010 BECMG 1521/1524 VRB05KT PROB40 1610/1618 29010KT

Decode

Destination Runways

ID Width Length Bearing (true) Bearing (mag) Surface Threshold Offset Overrun Length
15 197 ft / 60 m 10,869 ft / 3,313 m 140.81° 149.74° Asphalt 0 ft / 0 m 991 ft / 302 m
33 197 ft / 60 m 10,869 ft / 3,313 m 320.82° 329.75° Asphalt 0 ft / 0 m 1,040 ft / 317 m

Approach Navaids

Runway Type Ident Frequency Range Bearing (true) Bearing (mag) Slope Elevation
15 Localiser DK 109.90 MHz 18 nm / 33 km 140.82° 149.76° - 180 ft / 55 m (AMSL)
15 Glidescope DK 109.90 MHz 10 nm / 19 km 140.81° 149.75° 3.00° 159 ft / 48 m (AMSL)
33 Localiser OZ 111.50 MHz 18 nm / 33 km 320.81° 329.75° - 158 ft / 48 m (AMSL)
33 Glidescope OZ 111.50 MHz 10 nm / 19 km 320.81° 329.75° 3.20° 180 ft / 55 m (AMSL)

Popular Alternatives